sensor_id;sensor_type;location;lat;lon;timestamp;P1;durP1;ratioP1;P2;durP2;ratioP2
53245;SDS011;39569;51.090;-1.786;2023-05-14T00:01:25;45.75;;;41.28;;
53245;SDS011;39569;51.090;-1.786;2023-05-14T00:03:52;48.60;;;44.05;;
53245;SDS011;39569;51.090;-1.786;2023-05-14T00:06:19;48.05;;;43.25;;
53245;SDS011;39569;51.090;-1.786;2023-05-14T00:08:47;46.85;;;42.63;;
53245;SDS011;39569;51.090;-1.786;2023-05-14T00:11:14;50.85;;;44.85;;
53245;SDS011;39569;51.090;-1.786;2023-05-14T00:13:41;47.78;;;43.13;;
53245;SDS011;39569;51.090;-1.786;2023-05-14T00:16:08;47.22;;;42.65;;
53245;SDS011;39569;51.090;-1.786;2023-05-14T00:18:35;51.47;;;42.55;;
53245;SDS011;39569;51.090;-1.786;2023-05-14T00:21:02;45.90;;;41.67;;
53245;SDS011;39569;51.090;-1.786;2023-05-14T00:23:28;48.13;;;43.17;;
53245;SDS011;39569;51.090;-1.786;2023-05-14T00:25:57;47.38;;;42.70;;
53245;SDS011;39569;51.090;-1.786;2023-05-14T00:28:23;47.03;;;42.65;;
53245;SDS011;39569;51.090;-1.786;2023-05-14T00:30:50;47.80;;;43.35;;
53245;SDS011;39569;51.090;-1.786;2023-05-14T00:33:17;46.83;;;42.50;;
53245;SDS011;39569;51.090;-1.786;2023-05-14T00:35:44;47.17;;;42.78;;
53245;SDS011;39569;51.090;-1.786;2023-05-14T00:38:11;45.38;;;40.80;;
53245;SDS011;39569;51.090;-1.786;2023-05-14T00:40:41;48.53;;;41.88;;
53245;SDS011;39569;51.090;-1.786;2023-05-14T00:43:11;49.10;;;44.45;;
53245;SDS011;39569;51.090;-1.786;2023-05-14T00:45:38;58.85;;;46.28;;
53245;SDS011;39569;51.090;-1.786;2023-05-14T00:48:05;49.42;;;45.00;;
53245;SDS011;39569;51.090;-1.786;2023-05-14T00:50:32;47.65;;;43.22;;
53245;SDS011;39569;51.090;-1.786;2023-05-14T00:52:59;47.85;;;43.38;;
53245;SDS011;39569;51.090;-1.786;2023-05-14T00:55:26;49.45;;;44.63;;
53245;SDS011;39569;51.090;-1.786;2023-05-14T00:57:55;50.10;;;45.13;;
53245;SDS011;39569;51.090;-1.786;2023-05-14T01:00:25;50.17;;;45.70;;
53245;SDS011;39569;51.090;-1.786;2023-05-14T01:02:52;51.65;;;45.40;;
53245;SDS011;39569;51.090;-1.786;2023-05-14T01:05:19;55.25;;;47.60;;
53245;SDS011;39569;51.090;-1.786;2023-05-14T01:07:48;50.00;;;45.13;;
53245;SDS011;39569;51.090;-1.786;2023-05-14T01:10:26;51.63;;;47.05;;
53245;SDS011;39569;51.090;-1.786;2023-05-14T01:12:59;52.15;;;47.15;;
53245;SDS011;39569;51.090;-1.786;2023-05-14T01:15:32;49.13;;;44.63;;
53245;SDS011;39569;51.090;-1.786;2023-05-14T01:18:03;47.45;;;43.15;;
53245;SDS011;39569;51.090;-1.786;2023-05-14T01:20:32;50.65;;;45.42;;
53245;SDS011;39569;51.090;-1.786;2023-05-14T01:23:00;50.42;;;45.60;;
53245;SDS011;39569;51.090;-1.786;2023-05-14T01:25:29;52.35;;;47.10;;
53245;SDS011;39569;51.090;-1.786;2023-05-14T01:27:57;52.15;;;46.50;;
53245;SDS011;39569;51.090;-1.786;2023-05-14T01:30:33;25.63;;;22.90;;
53245;SDS011;39569;51.090;-1.786;2023-05-14T01:33:02;55.08;;;49.80;;
53245;SDS011;39569;51.090;-1.786;2023-05-14T01:35:31;54.50;;;49.03;;
53245;SDS011;39569;51.090;-1.786;2023-05-14T01:38:02;53.58;;;48.33;;
53245;SDS011;39569;51.090;-1.786;2023-05-14T01:40:32;56.13;;;51.00;;
53245;SDS011;39569;51.090;-1.786;2023-05-14T01:43:00;54.92;;;49.65;;
53245;SDS011;39569;51.090;-1.786;2023-05-14T01:45:28;57.22;;;51.83;;
53245;SDS011;39569;51.090;-1.786;2023-05-14T01:47:56;69.90;;;50.92;;
53245;SDS011;39569;51.090;-1.786;2023-05-14T01:50:23;57.80;;;51.70;;
53245;SDS011;39569;51.090;-1.786;2023-05-14T01:52:49;59.33;;;53.60;;
53245;SDS011;39569;51.090;-1.786;2023-05-14T01:55:19;57.92;;;52.28;;
53245;SDS011;39569;51.090;-1.786;2023-05-14T01:57:46;59.15;;;53.30;;
53245;SDS011;39569;51.090;-1.786;2023-05-14T02:00:13;56.15;;;50.33;;
53245;SDS011;39569;51.090;-1.786;2023-05-14T02:02:40;58.67;;;52.97;;
53245;SDS011;39569;51.090;-1.786;2023-05-14T02:05:07;59.83;;;54.05;;
53245;SDS011;39569;51.090;-1.786;2023-05-14T02:07:35;60.72;;;54.83;;
53245;SDS011;39569;51.090;-1.786;2023-05-14T02:10:02;60.85;;;54.45;;
53245;SDS011;39569;51.090;-1.786;2023-05-14T02:12:30;62.08;;;56.30;;
53245;SDS011;39569;51.090;-1.786;2023-05-14T02:14:57;61.25;;;55.20;;
53245;SDS011;39569;51.090;-1.786;2023-05-14T02:17:24;57.55;;;51.92;;
53245;SDS011;39569;51.090;-1.786;2023-05-14T02:19:51;59.03;;;53.88;;
53245;SDS011;39569;51.090;-1.786;2023-05-14T02:22:18;58.20;;;52.80;;
53245;SDS011;39569;51.090;-1.786;2023-05-14T02:24:44;64.93;;;59.13;;
53245;SDS011;39569;51.090;-1.786;2023-05-14T02:27:11;60.80;;;55.10;;
53245;SDS011;39569;51.090;-1.786;2023-05-14T02:29:39;61.67;;;56.13;;
53245;SDS011;39569;51.090;-1.786;2023-05-14T02:32:06;62.67;;;56.55;;
53245;SDS011;39569;51.090;-1.786;2023-05-14T02:34:33;60.97;;;55.40;;
53245;SDS011;39569;51.090;-1.786;2023-05-14T02:37:00;59.45;;;53.70;;
53245;SDS011;39569;51.090;-1.786;2023-05-14T02:39:27;60.53;;;55.10;;
53245;SDS011;39569;51.090;-1.786;2023-05-14T02:41:53;58.70;;;53.40;;
53245;SDS011;39569;51.090;-1.786;2023-05-14T02:44:20;68.03;;;60.67;;
53245;SDS011;39569;51.090;-1.786;2023-05-14T02:46:48;71.72;;;59.03;;
53245;SDS011;39569;51.090;-1.786;2023-05-14T02:49:15;63.38;;;56.60;;
53245;SDS011;39569;51.090;-1.786;2023-05-14T02:51:42;63.72;;;57.17;;
53245;SDS011;39569;51.090;-1.786;2023-05-14T02:54:08;68.85;;;58.42;;
53245;SDS011;39569;51.090;-1.786;2023-05-14T02:56:35;60.90;;;55.10;;
53245;SDS011;39569;51.090;-1.786;2023-05-14T02:59:02;62.78;;;56.58;;
53245;SDS011;39569;51.090;-1.786;2023-05-14T03:01:29;64.50;;;58.40;;
53245;SDS011;39569;51.090;-1.786;2023-05-14T03:03:57;63.67;;;57.78;;
53245;SDS011;39569;51.090;-1.786;2023-05-14T03:06:24;64.35;;;57.88;;
53245;SDS011;39569;51.090;-1.786;2023-05-14T03:08:51;62.80;;;56.85;;
53245;SDS011;39569;51.090;-1.786;2023-05-14T03:11:18;61.40;;;55.42;;
53245;SDS011;39569;51.090;-1.786;2023-05-14T03:13:44;64.28;;;57.95;;
53245;SDS011;39569;51.090;-1.786;2023-05-14T03:16:11;59.63;;;53.72;;
53245;SDS011;39569;51.090;-1.786;2023-05-14T03:18:38;61.35;;;55.22;;
53245;SDS011;39569;51.090;-1.786;2023-05-14T03:21:06;60.15;;;54.28;;
53245;SDS011;39569;51.090;-1.786;2023-05-14T03:23:33;59.92;;;53.95;;
53245;SDS011;39569;51.090;-1.786;2023-05-14T03:26:00;61.60;;;55.33;;
53245;SDS011;39569;51.090;-1.786;2023-05-14T03:28:27;61.00;;;55.13;;
53245;SDS011;39569;51.090;-1.786;2023-05-14T03:30:54;61.70;;;55.42;;
53245;SDS011;39569;51.090;-1.786;2023-05-14T03:33:21;67.47;;;57.10;;
53245;SDS011;39569;51.090;-1.786;2023-05-14T03:35:48;64.00;;;57.70;;
53245;SDS011;39569;51.090;-1.786;2023-05-14T03:38:17;62.90;;;57.00;;
53245;SDS011;39569;51.090;-1.786;2023-05-14T03:40:43;64.55;;;58.70;;
53245;SDS011;39569;51.090;-1.786;2023-05-14T03:43:10;64.22;;;58.30;;
53245;SDS011;39569;51.090;-1.786;2023-05-14T03:45:37;61.45;;;55.20;;
53245;SDS011;39569;51.090;-1.786;2023-05-14T03:48:04;67.88;;;60.72;;
53245;SDS011;39569;51.090;-1.786;2023-05-14T03:50:31;60.70;;;54.65;;
53245;SDS011;39569;51.090;-1.786;2023-05-14T03:52:58;63.95;;;57.83;;
53245;SDS011;39569;51.090;-1.786;2023-05-14T03:55:26;61.05;;;55.30;;
53245;SDS011;39569;51.090;-1.786;2023-05-14T03:57:53;61.83;;;55.92;;
53245;SDS011;39569;51.090;-1.786;2023-05-14T04:00:20;63.80;;;57.58;;
53245;SDS011;39569;51.090;-1.786;2023-05-14T04:02:47;66.13;;;59.40;;
53245;SDS011;39569;51.090;-1.786;2023-05-14T04:05:13;67.40;;;60.55;;
53245;SDS011;39569;51.090;-1.786;2023-05-14T04:07:40;66.18;;;59.65;;
53245;SDS011;39569;51.090;-1.786;2023-05-14T04:10:07;63.50;;;57.50;;
53245;SDS011;39569;51.090;-1.786;2023-05-14T04:12:36;66.07;;;59.78;;
53245;SDS011;39569;51.090;-1.786;2023-05-14T04:15:03;63.70;;;56.17;;
53245;SDS011;39569;51.090;-1.786;2023-05-14T04:17:30;71.13;;;63.83;;
53245;SDS011;39569;51.090;-1.786;2023-05-14T04:19:57;65.78;;;59.42;;
53245;SDS011;39569;51.090;-1.786;2023-05-14T04:22:24;63.33;;;57.28;;
53245;SDS011;39569;51.090;-1.786;2023-05-14T04:24:51;62.95;;;56.78;;
53245;SDS011;39569;51.090;-1.786;2023-05-14T04:27:18;67.47;;;60.28;;
53245;SDS011;39569;51.090;-1.786;2023-05-14T04:29:47;67.90;;;61.13;;
53245;SDS011;39569;51.090;-1.786;2023-05-14T04:32:14;66.10;;;58.97;;
53245;SDS011;39569;51.090;-1.786;2023-05-14T04:34:41;64.70;;;58.25;;
53245;SDS011;39569;51.090;-1.786;2023-05-14T04:37:08;64.70;;;58.05;;
53245;SDS011;39569;51.090;-1.786;2023-05-14T04:39:35;62.78;;;55.75;;
53245;SDS011;39569;51.090;-1.786;2023-05-14T04:42:02;28.83;;;24.45;;
53245;SDS011;39569;51.090;-1.786;2023-05-14T04:44:30;59.40;;;53.67;;
53245;SDS011;39569;51.090;-1.786;2023-05-14T04:46:59;57.00;;;51.15;;
53245;SDS011;39569;51.090;-1.786;2023-05-14T04:49:27;59.28;;;53.63;;
53245;SDS011;39569;51.090;-1.786;2023-05-14T04:51:54;62.75;;;56.53;;
53245;SDS011;39569;51.090;-1.786;2023-05-14T04:54:21;60.30;;;54.22;;
53245;SDS011;39569;51.090;-1.786;2023-05-14T04:56:47;63.03;;;56.90;;
53245;SDS011;39569;51.090;-1.786;2023-05-14T04:59:15;58.17;;;52.58;;
53245;SDS011;39569;51.090;-1.786;2023-05-14T05:01:42;61.63;;;55.72;;
53245;SDS011;39569;51.090;-1.786;2023-05-14T05:04:10;56.95;;;51.38;;
53245;SDS011;39569;51.090;-1.786;2023-05-14T05:06:37;60.58;;;54.10;;
53245;SDS011;39569;51.090;-1.786;2023-05-14T05:09:04;59.88;;;54.15;;
53245;SDS011;39569;51.090;-1.786;2023-05-14T05:11:30;62.80;;;56.53;;
53245;SDS011;39569;51.090;-1.786;2023-05-14T05:13:57;61.38;;;55.50;;
53245;SDS011;39569;51.090;-1.786;2023-05-14T05:16:24;64.22;;;57.72;;
53245;SDS011;39569;51.090;-1.786;2023-05-14T05:18:51;64.43;;;57.92;;
53245;SDS011;39569;51.090;-1.786;2023-05-14T05:21:19;64.20;;;58.17;;
53245;SDS011;39569;51.090;-1.786;2023-05-14T05:23:46;63.10;;;56.88;;
53245;SDS011;39569;51.090;-1.786;2023-05-14T05:26:12;61.10;;;55.03;;
53245;SDS011;39569;51.090;-1.786;2023-05-14T05:28:39;63.10;;;56.15;;
53245;SDS011;39569;51.090;-1.786;2023-05-14T05:31:06;60.55;;;54.63;;
53245;SDS011;39569;51.090;-1.786;2023-05-14T05:33:33;62.97;;;56.30;;
53245;SDS011;39569;51.090;-1.786;2023-05-14T05:36:00;68.07;;;56.58;;
53245;SDS011;39569;51.090;-1.786;2023-05-14T05:38:28;63.17;;;57.03;;
53245;SDS011;39569;51.090;-1.786;2023-05-14T05:40:55;62.95;;;56.75;;
53245;SDS011;39569;51.090;-1.786;2023-05-14T05:43:22;59.58;;;53.53;;
53245;SDS011;39569;51.090;-1.786;2023-05-14T05:45:48;61.75;;;55.25;;
53245;SDS011;39569;51.090;-1.786;2023-05-14T05:48:15;62.72;;;56.05;;
53245;SDS011;39569;51.090;-1.786;2023-05-14T05:50:42;66.93;;;59.75;;
53245;SDS011;39569;51.090;-1.786;2023-05-14T05:53:11;62.38;;;55.63;;
53245;SDS011;39569;51.090;-1.786;2023-05-14T05:55:41;63.67;;;57.50;;
53245;SDS011;39569;51.090;-1.786;2023-05-14T05:58:08;62.67;;;55.97;;
53245;SDS011;39569;51.090;-1.786;2023-05-14T06:00:35;57.78;;;51.50;;
53245;SDS011;39569;51.090;-1.786;2023-05-14T06:03:02;57.80;;;52.08;;
53245;SDS011;39569;51.090;-1.786;2023-05-14T06:05:29;59.90;;;54.03;;
53245;SDS011;39569;51.090;-1.786;2023-05-14T06:07:55;61.20;;;54.90;;
53245;SDS011;39569;51.090;-1.786;2023-05-14T06:10:22;61.53;;;54.90;;
53245;SDS011;39569;51.090;-1.786;2023-05-14T06:12:50;63.60;;;57.38;;
53245;SDS011;39569;51.090;-1.786;2023-05-14T06:15:17;66.50;;;58.53;;
53245;SDS011;39569;51.090;-1.786;2023-05-14T06:17:44;75.50;;;63.38;;
53245;SDS011;39569;51.090;-1.786;2023-05-14T06:20:11;66.78;;;59.75;;
53245;SDS011;39569;51.090;-1.786;2023-05-14T06:22:38;64.60;;;57.75;;
53245;SDS011;39569;51.090;-1.786;2023-05-14T06:25:05;62.60;;;56.40;;
53245;SDS011;39569;51.090;-1.786;2023-05-14T06:27:33;61.60;;;55.42;;
53245;SDS011;39569;51.090;-1.786;2023-05-14T06:30:01;61.25;;;55.20;;
53245;SDS011;39569;51.090;-1.786;2023-05-14T06:32:28;60.58;;;54.08;;
53245;SDS011;39569;51.090;-1.786;2023-05-14T06:34:54;56.13;;;50.72;;
53245;SDS011;39569;51.090;-1.786;2023-05-14T06:37:21;57.65;;;51.53;;
53245;SDS011;39569;51.090;-1.786;2023-05-14T06:39:48;57.30;;;51.50;;
53245;SDS011;39569;51.090;-1.786;2023-05-14T06:42:15;55.63;;;50.13;;
53245;SDS011;39569;51.090;-1.786;2023-05-14T06:44:42;31.17;;;22.30;;
53245;SDS011;39569;51.090;-1.786;2023-05-14T06:47:10;52.53;;;47.38;;
53245;SDS011;39569;51.090;-1.786;2023-05-14T06:49:37;53.92;;;48.53;;
53245;SDS011;39569;51.090;-1.786;2023-05-14T06:52:04;51.25;;;46.63;;
53245;SDS011;39569;51.090;-1.786;2023-05-14T06:54:31;51.38;;;46.25;;
53245;SDS011;39569;51.090;-1.786;2023-05-14T06:56:58;51.90;;;46.60;;
53245;SDS011;39569;51.090;-1.786;2023-05-14T06:59:25;49.90;;;44.97;;
53245;SDS011;39569;51.090;-1.786;2023-05-14T07:01:52;51.58;;;46.20;;
53245;SDS011;39569;51.090;-1.786;2023-05-14T07:04:20;50.17;;;45.17;;
53245;SDS011;39569;51.090;-1.786;2023-05-14T07:06:47;48.08;;;43.42;;
53245;SDS011;39569;51.090;-1.786;2023-05-14T07:09:14;49.90;;;44.80;;
53245;SDS011;39569;51.090;-1.786;2023-05-14T07:11:41;55.45;;;49.75;;
53245;SDS011;39569;51.090;-1.786;2023-05-14T07:14:08;63.15;;;48.50;;
53245;SDS011;39569;51.090;-1.786;2023-05-14T07:16:35;52.10;;;45.50;;
53245;SDS011;39569;51.090;-1.786;2023-05-14T07:19:02;50.00;;;45.03;;
53245;SDS011;39569;51.090;-1.786;2023-05-14T07:21:30;48.30;;;43.92;;
53245;SDS011;39569;51.090;-1.786;2023-05-14T07:23:57;48.75;;;43.90;;
53245;SDS011;39569;51.090;-1.786;2023-05-14T07:26:24;48.03;;;43.05;;
53245;SDS011;39569;51.090;-1.786;2023-05-14T07:28:50;47.50;;;41.58;;
53245;SDS011;39569;51.090;-1.786;2023-05-14T07:31:17;47.38;;;42.70;;
53245;SDS011;39569;51.090;-1.786;2023-05-14T07:33:44;45.15;;;40.80;;
53245;SDS011;39569;51.090;-1.786;2023-05-14T07:36:11;39.88;;;35.60;;
53245;SDS011;39569;51.090;-1.786;2023-05-14T07:38:39;46.38;;;41.63;;
53245;SDS011;39569;51.090;-1.786;2023-05-14T07:41:06;42.83;;;39.03;;
53245;SDS011;39569;51.090;-1.786;2023-05-14T07:43:33;46.53;;;42.20;;
53245;SDS011;39569;51.090;-1.786;2023-05-14T07:45:59;43.30;;;38.85;;
53245;SDS011;39569;51.090;-1.786;2023-05-14T07:48:26;44.67;;;40.45;;
53245;SDS011;39569;51.090;-1.786;2023-05-14T07:50:53;44.17;;;40.08;;
53245;SDS011;39569;51.090;-1.786;2023-05-14T07:53:20;43.00;;;38.67;;
53245;SDS011;39569;51.090;-1.786;2023-05-14T07:55:49;43.13;;;38.67;;
53245;SDS011;39569;51.090;-1.786;2023-05-14T07:58:16;43.53;;;39.22;;
53245;SDS011;39569;51.090;-1.786;2023-05-14T08:00:42;41.13;;;36.90;;
53245;SDS011;39569;51.090;-1.786;2023-05-14T08:03:09;39.97;;;36.13;;
53245;SDS011;39569;51.090;-1.786;2023-05-14T08:05:36;38.72;;;35.13;;
53245;SDS011;39569;51.090;-1.786;2023-05-14T08:08:03;44.15;;;39.70;;
53245;SDS011;39569;51.090;-1.786;2023-05-14T08:10:30;39.70;;;35.42;;
53245;SDS011;39569;51.090;-1.786;2023-05-14T08:12:58;39.17;;;35.40;;
53245;SDS011;39569;51.090;-1.786;2023-05-14T08:15:25;40.45;;;36.78;;
53245;SDS011;39569;51.090;-1.786;2023-05-14T08:17:52;40.95;;;36.53;;
53245;SDS011;39569;51.090;-1.786;2023-05-14T08:20:18;41.47;;;37.35;;
53245;SDS011;39569;51.090;-1.786;2023-05-14T08:22:46;41.13;;;36.85;;
53245;SDS011;39569;51.090;-1.786;2023-05-14T08:25:12;40.53;;;36.35;;
53245;SDS011;39569;51.090;-1.786;2023-05-14T08:27:39;36.63;;;33.38;;
53245;SDS011;39569;51.090;-1.786;2023-05-14T08:30:08;38.58;;;35.15;;
53245;SDS011;39569;51.090;-1.786;2023-05-14T08:32:35;36.83;;;33.42;;
53245;SDS011;39569;51.090;-1.786;2023-05-14T08:35:03;38.83;;;34.78;;
53245;SDS011;39569;51.090;-1.786;2023-05-14T08:37:30;35.00;;;31.83;;
53245;SDS011;39569;51.090;-1.786;2023-05-14T08:39:57;36.20;;;32.38;;
53245;SDS011;39569;51.090;-1.786;2023-05-14T08:42:25;36.15;;;32.78;;
53245;SDS011;39569;51.090;-1.786;2023-05-14T08:44:56;33.70;;;30.65;;
53245;SDS011;39569;51.090;-1.786;2023-05-14T08:47:27;35.60;;;32.10;;
53245;SDS011;39569;51.090;-1.786;2023-05-14T08:49:58;35.40;;;32.28;;
53245;SDS011;39569;51.090;-1.786;2023-05-14T08:52:28;32.72;;;30.00;;
53245;SDS011;39569;51.090;-1.786;2023-05-14T08:54:56;35.95;;;31.05;;
53245;SDS011;39569;51.090;-1.786;2023-05-14T08:57:25;33.85;;;30.45;;
53245;SDS011;39569;51.090;-1.786;2023-05-14T08:59:55;32.72;;;29.92;;
53245;SDS011;39569;51.090;-1.786;2023-05-14T09:02:23;30.50;;;27.67;;
53245;SDS011;39569;51.090;-1.786;2023-05-14T09:04:56;32.17;;;29.27;;
53245;SDS011;39569;51.090;-1.786;2023-05-14T09:07:24;29.35;;;26.77;;
53245;SDS011;39569;51.090;-1.786;2023-05-14T09:09:51;30.70;;;27.98;;
53245;SDS011;39569;51.090;-1.786;2023-05-14T09:12:19;29.35;;;26.70;;
53245;SDS011;39569;51.090;-1.786;2023-05-14T09:14:47;29.80;;;26.80;;
53245;SDS011;39569;51.090;-1.786;2023-05-14T09:17:15;28.25;;;25.73;;
53245;SDS011;39569;51.090;-1.786;2023-05-14T09:19:43;27.52;;;24.92;;
53245;SDS011;39569;51.090;-1.786;2023-05-14T09:22:15;27.27;;;24.48;;
53245;SDS011;39569;51.090;-1.786;2023-05-14T09:24:43;24.60;;;22.15;;
53245;SDS011;39569;51.090;-1.786;2023-05-14T09:27:14;25.90;;;23.50;;
53245;SDS011;39569;51.090;-1.786;2023-05-14T09:29:44;24.23;;;22.13;;
53245;SDS011;39569;51.090;-1.786;2023-05-14T09:32:11;25.00;;;22.50;;
53245;SDS011;39569;51.090;-1.786;2023-05-14T09:34:38;23.05;;;20.80;;
53245;SDS011;39569;51.090;-1.786;2023-05-14T09:37:05;22.17;;;19.92;;
53245;SDS011;39569;51.090;-1.786;2023-05-14T09:39:36;23.70;;;21.13;;
53245;SDS011;39569;51.090;-1.786;2023-05-14T09:42:03;21.73;;;20.02;;
53245;SDS011;39569;51.090;-1.786;2023-05-14T09:44:30;23.08;;;20.85;;
53245;SDS011;39569;51.090;-1.786;2023-05-14T09:46:57;23.80;;;21.55;;
53245;SDS011;39569;51.090;-1.786;2023-05-14T09:49:24;23.65;;;21.60;;
53245;SDS011;39569;51.090;-1.786;2023-05-14T09:51:51;25.75;;;23.42;;
53245;SDS011;39569;51.090;-1.786;2023-05-14T09:54:18;25.13;;;22.67;;
53245;SDS011;39569;51.090;-1.786;2023-05-14T09:56:46;28.10;;;25.30;;
53245;SDS011;39569;51.090;-1.786;2023-05-14T09:59:13;28.55;;;22.52;;
53245;SDS011;39569;51.090;-1.786;2023-05-14T10:01:40;28.98;;;23.60;;
53245;SDS011;39569;51.090;-1.786;2023-05-14T10:04:08;24.67;;;22.50;;
53245;SDS011;39569;51.090;-1.786;2023-05-14T10:06:36;26.77;;;24.33;;
53245;SDS011;39569;51.090;-1.786;2023-05-14T10:09:07;27.88;;;24.13;;
53245;SDS011;39569;51.090;-1.786;2023-05-14T10:11:37;27.45;;;24.75;;
53245;SDS011;39569;51.090;-1.786;2023-05-14T10:14:12;29.58;;;26.98;;
53245;SDS011;39569;51.090;-1.786;2023-05-14T10:16:45;30.00;;;27.15;;
53245;SDS011;39569;51.090;-1.786;2023-05-14T10:19:14;29.17;;;26.45;;
53245;SDS011;39569;51.090;-1.786;2023-05-14T10:21:43;27.80;;;25.30;;
53245;SDS011;39569;51.090;-1.786;2023-05-14T10:24:11;30.15;;;26.48;;
53245;SDS011;39569;51.090;-1.786;2023-05-14T10:26:38;29.83;;;27.05;;
53245;SDS011;39569;51.090;-1.786;2023-05-14T10:29:06;28.40;;;25.83;;
53245;SDS011;39569;51.090;-1.786;2023-05-14T10:31:49;27.85;;;25.20;;
53245;SDS011;39569;51.090;-1.786;2023-05-14T10:34:30;31.25;;;28.25;;
53245;SDS011;39569;51.090;-1.786;2023-05-14T10:36:58;25.13;;;22.83;;
53245;SDS011;39569;51.090;-1.786;2023-05-14T10:42:24;28.60;;;25.80;;
53245;SDS011;39569;51.090;-1.786;2023-05-14T10:44:53;28.30;;;25.70;;
53245;SDS011;39569;51.090;-1.786;2023-05-14T10:47:23;27.23;;;24.92;;
53245;SDS011;39569;51.090;-1.786;2023-05-14T10:49:52;28.13;;;25.83;;
53245;SDS011;39569;51.090;-1.786;2023-05-14T10:52:20;25.85;;;23.85;;
53245;SDS011;39569;51.090;-1.786;2023-05-14T10:54:48;28.63;;;26.00;;
53245;SDS011;39569;51.090;-1.786;2023-05-14T10:57:16;26.80;;;24.33;;
53245;SDS011;39569;51.090;-1.786;2023-05-14T10:59:45;27.35;;;24.35;;
53245;SDS011;39569;51.090;-1.786;2023-05-14T11:02:17;25.30;;;22.77;;
53245;SDS011;39569;51.090;-1.786;2023-05-14T11:07:35;23.88;;;21.40;;
53245;SDS011;39569;51.090;-1.786;2023-05-14T11:10:03;26.13;;;18.60;;
53245;SDS011;39569;51.090;-1.786;2023-05-14T11:12:31;20.27;;;18.33;;
53245;SDS011;39569;51.090;-1.786;2023-05-14T11:14:59;19.95;;;18.13;;
53245;SDS011;39569;51.090;-1.786;2023-05-14T11:17:28;17.45;;;15.88;;
53245;SDS011;39569;51.090;-1.786;2023-05-14T11:19:55;20.17;;;17.63;;
53245;SDS011;39569;51.090;-1.786;2023-05-14T11:22:24;19.38;;;17.73;;
53245;SDS011;39569;51.090;-1.786;2023-05-14T11:24:51;21.17;;;19.17;;
53245;SDS011;39569;51.090;-1.786;2023-05-14T11:27:19;21.98;;;20.00;;
53245;SDS011;39569;51.090;-1.786;2023-05-14T11:29:47;21.23;;;17.67;;
53245;SDS011;39569;51.090;-1.786;2023-05-14T11:32:15;21.70;;;19.90;;
53245;SDS011;39569;51.090;-1.786;2023-05-14T11:34:42;22.05;;;19.95;;
53245;SDS011;39569;51.090;-1.786;2023-05-14T11:37:10;21.95;;;20.05;;
53245;SDS011;39569;51.090;-1.786;2023-05-14T11:39:45;22.15;;;20.02;;
53245;SDS011;39569;51.090;-1.786;2023-05-14T11:42:12;25.02;;;22.85;;
53245;SDS011;39569;51.090;-1.786;2023-05-14T11:44:41;19.00;;;17.40;;
53245;SDS011;39569;51.090;-1.786;2023-05-14T11:47:10;20.33;;;18.83;;
53245;SDS011;39569;51.090;-1.786;2023-05-14T11:49:36;18.50;;;16.98;;
53245;SDS011;39569;51.090;-1.786;2023-05-14T11:52:04;19.80;;;18.08;;
53245;SDS011;39569;51.090;-1.786;2023-05-14T11:54:32;18.10;;;16.40;;
53245;SDS011;39569;51.090;-1.786;2023-05-14T11:57:01;16.77;;;15.45;;
53245;SDS011;39569;51.090;-1.786;2023-05-14T11:59:33;20.90;;;18.83;;
53245;SDS011;39569;51.090;-1.786;2023-05-14T12:02:00;19.25;;;17.75;;
53245;SDS011;39569;51.090;-1.786;2023-05-14T12:04:28;19.85;;;18.15;;
53245;SDS011;39569;51.090;-1.786;2023-05-14T12:06:56;17.73;;;15.95;;
53245;SDS011;39569;51.090;-1.786;2023-05-14T12:09:25;28.88;;;20.55;;
53245;SDS011;39569;51.090;-1.786;2023-05-14T12:11:53;19.00;;;17.15;;
53245;SDS011;39569;51.090;-1.786;2023-05-14T12:14:21;18.50;;;16.83;;
53245;SDS011;39569;51.090;-1.786;2023-05-14T12:16:49;23.00;;;16.73;;
53245;SDS011;39569;51.090;-1.786;2023-05-14T12:19:17;20.38;;;18.58;;
53245;SDS011;39569;51.090;-1.786;2023-05-14T12:21:46;18.95;;;17.20;;
53245;SDS011;39569;51.090;-1.786;2023-05-14T12:24:15;17.70;;;15.90;;
53245;SDS011;39569;51.090;-1.786;2023-05-14T12:26:43;15.35;;;14.18;;
53245;SDS011;39569;51.090;-1.786;2023-05-14T12:29:11;23.77;;;16.17;;
53245;SDS011;39569;51.090;-1.786;2023-05-14T12:31:45;13.95;;;12.75;;
53245;SDS011;39569;51.090;-1.786;2023-05-14T12:34:12;13.40;;;12.38;;
53245;SDS011;39569;51.090;-1.786;2023-05-14T12:36:40;12.68;;;11.60;;
53245;SDS011;39569;51.090;-1.786;2023-05-14T12:39:07;12.90;;;10.45;;
53245;SDS011;39569;51.090;-1.786;2023-05-14T12:41:37;11.32;;;10.32;;
53245;SDS011;39569;51.090;-1.786;2023-05-14T12:44:09;12.32;;;11.32;;
53245;SDS011;39569;51.090;-1.786;2023-05-14T12:46:39;14.63;;;13.27;;
53245;SDS011;39569;51.090;-1.786;2023-05-14T12:49:19;13.95;;;12.68;;
53245;SDS011;39569;51.090;-1.786;2023-05-14T12:51:46;14.00;;;12.82;;
53245;SDS011;39569;51.090;-1.786;2023-05-14T12:54:13;13.73;;;12.45;;
53245;SDS011;39569;51.090;-1.786;2023-05-14T12:56:41;14.00;;;12.60;;
53245;SDS011;39569;51.090;-1.786;2023-05-14T12:59:07;12.23;;;11.18;;
53245;SDS011;39569;51.090;-1.786;2023-05-14T13:01:34;11.88;;;10.68;;
53245;SDS011;39569;51.090;-1.786;2023-05-14T13:04:02;11.18;;;10.38;;
53245;SDS011;39569;51.090;-1.786;2023-05-14T13:06:31;11.13;;;10.02;;
53245;SDS011;39569;51.090;-1.786;2023-05-14T13:08:57;10.43;;;9.52;;
53245;SDS011;39569;51.090;-1.786;2023-05-14T13:11:26;24.73;;;9.25;;
53245;SDS011;39569;51.090;-1.786;2023-05-14T13:13:56;8.73;;;8.02;;
53245;SDS011;39569;51.090;-1.786;2023-05-14T13:16:23;9.82;;;8.93;;
53245;SDS011;39569;51.090;-1.786;2023-05-14T13:18:55;7.95;;;7.28;;
53245;SDS011;39569;51.090;-1.786;2023-05-14T13:21:22;8.65;;;8.02;;
53245;SDS011;39569;51.090;-1.786;2023-05-14T13:23:51;7.85;;;7.07;;
53245;SDS011;39569;51.090;-1.786;2023-05-14T13:26:18;7.88;;;6.18;;
53245;SDS011;39569;51.090;-1.786;2023-05-14T13:28:45;8.63;;;7.78;;
53245;SDS011;39569;51.090;-1.786;2023-05-14T13:31:13;7.38;;;6.78;;
53245;SDS011;39569;51.090;-1.786;2023-05-14T13:33:40;5.57;;;5.18;;
53245;SDS011;39569;51.090;-1.786;2023-05-14T13:36:09;8.30;;;7.60;;
53245;SDS011;39569;51.090;-1.786;2023-05-14T13:38:36;6.45;;;6.05;;
53245;SDS011;39569;51.090;-1.786;2023-05-14T13:41:05;6.03;;;5.40;;
53245;SDS011;39569;51.090;-1.786;2023-05-14T13:43:32;6.18;;;5.10;;
53245;SDS011;39569;51.090;-1.786;2023-05-14T13:46:00;5.18;;;4.78;;
53245;SDS011;39569;51.090;-1.786;2023-05-14T13:48:28;5.13;;;4.72;;
53245;SDS011;39569;51.090;-1.786;2023-05-14T13:50:55;5.00;;;4.57;;
53245;SDS011;39569;51.090;-1.786;2023-05-14T13:53:23;5.00;;;4.50;;
53245;SDS011;39569;51.090;-1.786;2023-05-14T13:55:50;4.47;;;4.18;;
53245;SDS011;39569;51.090;-1.786;2023-05-14T13:58:22;6.10;;;5.53;;
53245;SDS011;39569;51.090;-1.786;2023-05-14T14:00:49;5.63;;;4.68;;
53245;SDS011;39569;51.090;-1.786;2023-05-14T14:03:16;12.35;;;5.35;;
53245;SDS011;39569;51.090;-1.786;2023-05-14T14:05:43;5.60;;;5.10;;
53245;SDS011;39569;51.090;-1.786;2023-05-14T14:08:10;8.38;;;5.20;;
53245;SDS011;39569;51.090;-1.786;2023-05-14T14:10:36;4.80;;;4.45;;
53245;SDS011;39569;51.090;-1.786;2023-05-14T14:13:05;9.55;;;5.63;;
53245;SDS011;39569;51.090;-1.786;2023-05-14T14:15:33;5.57;;;5.18;;
53245;SDS011;39569;51.090;-1.786;2023-05-14T14:18:00;6.82;;;5.68;;
53245;SDS011;39569;51.090;-1.786;2023-05-14T14:20:27;6.38;;;5.22;;